Time,TemperatureF,DewpointF,PressureIn,WindDirection,WindDirectionDegrees,WindSpeedMPH,WindSpeedGustMPH,Humidity,HourlyPrecipIn,Conditions,Clouds,dailyrainin,SolarRadiationWatts/m^2,SoftwareType,DateUTC
2013-01-03 00:03:00,31.7,29.0,30.31,NNW,329,1.0,2.0,89,0.00,,,0.00,0,weatherlink.com 1.10,2013-01-03 06:03:00,
2013-01-03 00:18:00,31.3,29.0,30.31,NNW,328,2.0,2.0,89,0.00,,,0.00,0,weatherlink.com 1.10,2013-01-03 06:18:00,
2013-01-03 00:33:00,30.6,28.0,30.31,NNW,329,2.0,3.0,90,0.00,,,0.00,0,weatherlink.com 1.10,2013-01-03 06:33:00,
2013-01-03 00:48:00,30.7,28.0,30.32,NNW,329,2.0,3.0,91,0.00,,,0.00,0,weatherlink.com 1.10,2013-01-03 06:48:00,
2013-01-03 01:04:00,30.6,28.0,30.31,NNW,329,4.0,5.0,91,0.00,,,0.00,0,weatherlink.com 1.10,2013-01-03 07:04:00,
2013-01-03 01:19:00,30.5,28.0,30.31,NNW,328,3.0,4.0,91,0.00,,,0.00,0,weatherlink.com 1.10,2013-01-03 07:19:00,
2013-01-03 01:34:00,30.4,28.0,30.31,NNW,328,0.0,3.0,90,0.00,,,0.00,0,weatherlink.com 1.10,2013-01-03 07:34:00,
2013-01-03 01:49:00,30.3,28.0,30.32,NNW,329,1.0,2.0,90,0.00,,,0.00,0,weatherlink.com 1.10,2013-01-03 07:49:00,
2013-01-03 02:04:00,29.5,27.0,30.32,NNW,329,1.0,2.0,90,0.00,,,0.00,0,weatherlink.com 1.10,2013-01-03 08:04:00,
2013-01-03 02:19:00,29.9,28.0,30.32,NNW,328,3.0,4.0,91,0.00,,,0.00,0,weatherlink.com 1.10,2013-01-03 08:19:00,
2013-01-03 02:34:00,30.1,28.0,30.32,NNW,329,2.0,3.0,91,0.00,,,0.00,0,weatherlink.com 1.10,2013-01-03 08:34:00,
2013-01-03 02:49:00,30.6,28.0,30.32,NNW,329,2.0,3.0,91,0.00,,,0.00,0,weatherlink.com 1.10,2013-01-03 08:49:00,
2013-01-03 03:04:00,30.2,28.0,30.33,NNW,329,3.0,4.0,91,0.00,,,0.00,0,weatherlink.com 1.10,2013-01-03 09:04:00,
2013-01-03 03:19:00,29.5,27.0,30.33,NNW,329,2.0,4.0,91,0.00,,,0.00,0,weatherlink.com 1.10,2013-01-03 09:19:00,
2013-01-03 03:34:00,28.7,26.0,30.33,NNW,329,3.0,4.0,91,0.00,,,0.00,0,weatherlink.com 1.10,2013-01-03 09:34:00,
2013-01-03 03:49:00,29.6,28.0,30.33,NNW,329,5.0,5.0,92,0.00,,,0.00,0,weatherlink.com 1.10,2013-01-03 09:49:00,
2013-01-03 04:04:00,30.4,28.0,30.34,NW,326,5.0,6.0,91,0.00,,,0.00,0,weatherlink.com 1.10,2013-01-03 10:04:00,
2013-01-03 04:19:00,31.5,29.0,30.34,West,267,5.0,8.0,90,0.00,,,0.00,0,weatherlink.com 1.10,2013-01-03 10:19:00,
2013-01-03 04:34:00,31.5,28.0,30.34,West,264,3.0,6.0,88,0.00,,,0.00,0,weatherlink.com 1.10,2013-01-03 10:34:00,
2013-01-03 04:49:00,31.2,29.0,30.34,West,264,6.0,8.0,90,0.00,,,0.00,0,weatherlink.com 1.10,2013-01-03 10:49:00,
2013-01-03 05:04:00,32.2,29.0,30.34,WNW,285,7.0,9.0,87,0.00,,,0.00,0,weatherlink.com 1.10,2013-01-03 11:04:00,
2013-01-03 05:19:00,31.1,28.0,30.33,NW,307,6.0,9.0,88,0.00,,,0.00,0,weatherlink.com 1.10,2013-01-03 11:19:00,
2013-01-03 05:34:00,30.3,27.0,30.34,NW,313,6.0,8.0,87,0.00,,,0.00,0,weatherlink.com 1.10,2013-01-03 11:34:00,
2013-01-03 05:49:00,30.7,27.0,30.34,NW,310,4.0,8.0,87,0.00,,,0.00,0,weatherlink.com 1.10,2013-01-03 11:49:00,
2013-01-03 06:04:00,31.3,28.0,30.35,NW,308,6.0,7.0,86,0.00,,,0.00,0,weatherlink.com 1.10,2013-01-03 12:04:00,
2013-01-03 06:19:00,31.8,28.0,30.36,NW,311,6.0,8.0,86,0.00,,,0.00,0,weatherlink.com 1.10,2013-01-03 12:19:00,
2013-01-03 06:34:00,32.4,29.0,30.36,NW,320,6.0,8.0,86,0.00,,,0.00,0,weatherlink.com 1.10,2013-01-03 12:34:00,
2013-01-03 06:49:00,32.9,29.0,30.36,NW,311,5.0,7.0,85,0.00,,,0.00,0,weatherlink.com 1.10,2013-01-03 12:49:00,
2013-01-03 07:04:00,32.8,29.0,30.37,NW,311,6.0,9.0,85,0.00,,,0.00,0,weatherlink.com 1.10,2013-01-03 13:04:00,
2013-01-03 07:19:00,32.8,29.0,30.38,NW,309,7.0,8.0,85,0.00,,,0.00,0,weatherlink.com 1.10,2013-01-03 13:19:00,
2013-01-03 07:34:00,33.0,29.0,30.40,NW,310,8.0,9.0,85,0.00,,,0.00,9,weatherlink.com 1.10,2013-01-03 13:34:00,
2013-01-03 07:49:00,32.8,29.0,30.40,WNW,297,6.0,7.0,85,0.00,,,0.00,19,weatherlink.com 1.10,2013-01-03 13:49:00,
2013-01-03 08:04:00,32.5,29.0,30.40,WNW,301,7.0,7.0,86,0.00,,,0.00,44,weatherlink.com 1.10,2013-01-03 14:04:00,
2013-01-03 08:19:00,33.3,30.0,30.41,NW,314,5.0,9.0,86,0.00,,,0.00,84,weatherlink.com 1.10,2013-01-03 14:19:00,
2013-01-03 08:35:00,34.8,31.0,30.41,NW,323,7.0,11.0,85,0.00,,,0.00,132,weatherlink.com 1.10,2013-01-03 14:35:00,
2013-01-03 08:50:00,36.1,31.0,30.40,NNW,334,11.0,15.0,82,0.00,,,0.00,174,weatherlink.com 1.10,2013-01-03 14:50:00,
2013-01-03 09:05:00,36.6,32.0,30.41,NW,324,14.0,16.0,82,0.00,,,0.00,214,weatherlink.com 1.10,2013-01-03 15:05:00,
2013-01-03 09:20:00,37.3,32.0,30.41,NW,324,14.0,17.0,80,0.00,,,0.00,255,weatherlink.com 1.10,2013-01-03 15:20:00,
2013-01-03 09:35:00,37.8,32.0,30.42,North,354,12.0,20.0,79,0.00,,,0.00,295,weatherlink.com 1.10,2013-01-03 15:35:00,
2013-01-03 09:50:00,38.7,32.0,30.43,NNW,347,10.0,16.0,78,0.00,,,0.00,330,weatherlink.com 1.10,2013-01-03 15:50:00,
2013-01-03 10:05:00,39.2,32.0,30.42,NNE,18,15.0,20.0,76,0.00,,,0.00,367,weatherlink.com 1.10,2013-01-03 16:05:00,
2013-01-03 10:20:00,40.3,33.0,30.44,NNW,339,12.0,15.0,75,0.00,,,0.00,399,weatherlink.com 1.10,2013-01-03 16:20:00,
2013-01-03 10:35:00,41.3,33.0,30.44,NNW,347,8.0,13.0,73,0.00,,,0.00,434,weatherlink.com 1.10,2013-01-03 16:35:00,
2013-01-03 10:50:00,42.7,34.0,30.44,North,354,10.0,14.0,71,0.00,,,0.00,461,weatherlink.com 1.10,2013-01-03 16:50:00,
2013-01-03 11:05:00,43.3,34.0,30.43,North,350,13.0,15.0,70,0.00,,,0.00,490,weatherlink.com 1.10,2013-01-03 17:05:00,
2013-01-03 11:20:00,43.9,33.0,30.42,NNW,343,16.0,20.0,66,0.00,,,0.00,526,weatherlink.com 1.10,2013-01-03 17:20:00,
2013-01-03 11:35:00,44.7,33.0,30.40,North,4,13.0,21.0,64,0.00,,,0.00,531,weatherlink.com 1.10,2013-01-03 17:35:00,
2013-01-03 11:50:00,44.7,32.0,30.39,North,359,15.0,20.0,62,0.00,,,0.00,260,weatherlink.com 1.10,2013-01-03 17:50:00,
2013-01-03 12:05:00,45.7,32.0,30.39,North,359,15.0,21.0,60,0.00,,,0.00,557,weatherlink.com 1.10,2013-01-03 18:05:00,
2013-01-03 12:20:00,47.0,33.0,30.38,North,8,11.0,19.0,59,0.00,,,0.00,557,weatherlink.com 1.10,2013-01-03 18:20:00,
2013-01-03 12:35:00,46.5,32.0,30.37,North,354,10.0,17.0,57,0.00,,,0.00,598,weatherlink.com 1.10,2013-01-03 18:35:00,
2013-01-03 12:51:00,47.3,33.0,30.38,NW,321,8.0,14.0,58,0.00,,,0.00,550,weatherlink.com 1.10,2013-01-03 18:51:00,
2013-01-03 13:51:00,48.0,31.0,30.37,NNW,347,10.0,12.0,53,0.00,,,0.00,323,weatherlink.com 1.10,2013-01-03 19:51:00,
2013-01-03 14:06:00,48.4,31.0,30.37,NE,40,6.0,11.0,52,0.00,,,0.00,192,weatherlink.com 1.10,2013-01-03 20:06:00,
2013-01-03 14:21:00,47.9,31.0,30.36,NNE,22,9.0,10.0,52,0.00,,,0.00,213,weatherlink.com 1.10,2013-01-03 20:21:00,
2013-01-03 14:36:00,48.5,31.0,30.36,NNW,337,10.0,13.0,52,0.00,,,0.00,364,weatherlink.com 1.10,2013-01-03 20:36:00,
2013-01-03 14:51:00,48.4,31.0,30.37,NW,313,10.0,11.0,51,0.00,,,0.00,167,weatherlink.com 1.10,2013-01-03 20:51:00,
2013-01-03 15:06:00,48.2,32.0,30.36,WNW,293,7.0,12.0,53,0.00,,,0.00,142,weatherlink.com 1.10,2013-01-03 21:06:00,
2013-01-03 15:21:00,48.3,31.0,30.37,NW,323,9.0,13.0,51,0.00,,,0.00,116,weatherlink.com 1.10,2013-01-03 21:21:00,
2013-01-03 15:36:00,48.3,30.0,30.37,NNW,340,7.0,13.0,50,0.00,,,0.00,118,weatherlink.com 1.10,2013-01-03 21:36:00,
2013-01-03 15:51:00,48.3,30.0,30.38,NNW,332,8.0,12.0,50,0.00,,,0.00,83,weatherlink.com 1.10,2013-01-03 21:51:00,
2013-01-03 16:06:00,48.2,30.0,30.38,NNW,335,10.0,12.0,49,0.00,,,0.00,72,weatherlink.com 1.10,2013-01-03 22:06:00,
2013-01-03 16:21:00,48.0,30.0,30.38,NW,326,6.0,11.0,50,0.00,,,0.00,42,weatherlink.com 1.10,2013-01-03 22:21:00,
2013-01-03 16:36:00,47.9,30.0,30.38,NNW,330,6.0,11.0,50,0.00,,,0.00,30,weatherlink.com 1.10,2013-01-03 22:36:00,
2013-01-03 16:51:00,47.6,31.0,30.38,NNW,343,4.0,7.0,53,0.00,,,0.00,18,weatherlink.com 1.10,2013-01-03 22:51:00,
2013-01-03 17:06:00,47.4,32.0,30.38,NNW,327,3.0,8.0,55,0.00,,,0.00,14,weatherlink.com 1.10,2013-01-03 23:06:00,
2013-01-03 17:21:00,47.1,31.0,30.38,NNW,328,5.0,7.0,55,0.00,,,0.00,9,weatherlink.com 1.10,2013-01-03 23:21:00,
2013-01-03 17:36:00,46.9,31.0,30.38,NW,326,5.0,7.0,55,0.00,,,0.00,0,weatherlink.com 1.10,2013-01-03 23:36:00,
2013-01-03 17:51:00,46.8,32.0,30.39,NW,324,4.0,6.0,56,0.00,,,0.00,0,weatherlink.com 1.10,2013-01-03 23:51:00,
2013-01-03 18:06:00,46.6,31.0,30.40,NNW,327,5.0,6.0,56,0.00,,,0.00,0,weatherlink.com 1.10,2013-01-04 00:06:00,
2013-01-03 18:21:00,46.4,31.0,30.41,NW,326,4.0,5.0,56,0.00,,,0.00,0,weatherlink.com 1.10,2013-01-04 00:21:00,
2013-01-03 18:36:00,46.2,32.0,30.40,NW,326,4.0,5.0,57,0.00,,,0.00,0,weatherlink.com 1.10,2013-01-04 00:36:00,
2013-01-03 18:51:00,45.9,32.0,30.41,NNW,327,4.0,5.0,58,0.00,,,0.00,0,weatherlink.com 1.10,2013-01-04 00:51:00,
2013-01-03 19:06:00,45.6,32.0,30.40,NW,326,4.0,6.0,59,0.00,,,0.00,0,weatherlink.com 1.10,2013-01-04 01:06:00,
2013-01-03 19:21:00,45.3,32.0,30.40,NNW,328,6.0,7.0,59,0.00,,,0.00,0,weatherlink.com 1.10,2013-01-04 01:21:00,
2013-01-03 19:36:00,45.4,31.0,30.41,NNW,331,5.0,7.0,58,0.00,,,0.00,0,weatherlink.com 1.10,2013-01-04 01:36:00,
2013-01-03 19:51:00,45.3,32.0,30.41,NNW,331,3.0,6.0,59,0.00,,,0.00,0,weatherlink.com 1.10,2013-01-04 01:51:00,
2013-01-03 20:06:00,45.2,31.0,30.40,NNW,332,4.0,6.0,59,0.00,,,0.00,0,weatherlink.com 1.10,2013-01-04 02:06:00,
2013-01-03 20:21:00,45.1,31.0,30.40,NNW,331,5.0,6.0,59,0.00,,,0.00,0,weatherlink.com 1.10,2013-01-04 02:21:00,
2013-01-03 20:36:00,44.8,31.0,30.40,NNW,332,3.0,6.0,60,0.00,,,0.00,0,weatherlink.com 1.10,2013-01-04 02:36:00,
2013-01-03 20:51:00,44.5,32.0,30.40,NNW,332,4.0,5.0,61,0.00,,,0.00,0,weatherlink.com 1.10,2013-01-04 02:51:00,
2013-01-03 21:06:00,44.3,32.0,30.39,NNW,332,4.0,5.0,62,0.00,,,0.00,0,weatherlink.com 1.10,2013-01-04 03:06:00,
2013-01-03 21:21:00,44.1,32.0,30.39,NNW,331,6.0,6.0,63,0.00,,,0.00,0,weatherlink.com 1.10,2013-01-04 03:21:00,
2013-01-03 21:36:00,44.3,32.0,30.39,NNW,332,3.0,6.0,62,0.00,,,0.00,0,weatherlink.com 1.10,2013-01-04 03:36:00,
2013-01-03 21:51:00,44.2,32.0,30.39,NNW,332,4.0,6.0,63,0.00,,,0.00,0,weatherlink.com 1.10,2013-01-04 03:51:00,
2013-01-03 22:06:00,43.8,32.0,30.39,NNW,332,4.0,6.0,64,0.00,,,0.00,0,weatherlink.com 1.10,2013-01-04 04:06:00,
2013-01-03 22:21:00,43.9,32.0,30.40,NNW,332,4.0,6.0,64,0.00,,,0.00,0,weatherlink.com 1.10,2013-01-04 04:21:00,
2013-01-03 22:36:00,43.8,32.0,30.41,NNW,332,5.0,6.0,64,0.00,,,0.00,0,weatherlink.com 1.10,2013-01-04 04:36:00,
2013-01-03 22:51:00,44.1,32.0,30.41,NNW,334,6.0,8.0,63,0.00,,,0.00,0,weatherlink.com 1.10,2013-01-04 04:51:00,
2013-01-03 23:21:00,43.9,32.0,30.40,NNW,345,3.0,7.0,63,0.00,,,0.00,0,weatherlink.com 1.10,2013-01-04 05:21:00,
2013-01-03 23:36:00,43.9,32.0,30.40,North,349,6.0,7.0,63,0.00,,,0.00,0,weatherlink.com 1.10,2013-01-04 05:36:00,
2013-01-03 23:51:00,43.7,32.0,30.39,North,354,5.0,8.0,64,0.00,,,0.00,0,weatherlink.com 1.10,2013-01-04 05:51:00,